Terminal Aerodrome Forecast
Issued by NWS Greer, SC

Home | Current Version | Previous Version | Text Only | Print | Product List | Glossary On
Versions: 1 2 3 4 5 6 7 8 9 10 11 12
856
FTUS42 KGSP 201138
TAFGSP
TAF
KGSP 201138Z 2012/2112 VRB02KT P6SM FEW090
      TEMPO 2012/2013 5SM BR
     FM201600 25004KT P6SM SCT045 PROB30 2021/2024 4SM -TSRA
      BKN040CB
     FM210000 22003KT P6SM FEW060
     FM210800 VRB03KT P6SM FEW250=

USA.gov is the U.S. government's official web portal to all federal, state and local government web resources and services.